sensor_id;sensor_type;location;lat;lon;timestamp;temperature;humidity
61255;DHT22;47128;47.530;8.584;2023-05-07T00:01:06;14.20;99.90
61255;DHT22;47128;47.530;8.584;2023-05-07T00:03:31;14.10;99.90
61255;DHT22;47128;47.530;8.584;2023-05-07T00:05:57;14.10;99.90
61255;DHT22;47128;47.530;8.584;2023-05-07T00:08:23;13.90;99.90
61255;DHT22;47128;47.530;8.584;2023-05-07T00:10:49;14.00;99.90
61255;DHT22;47128;47.530;8.584;2023-05-07T00:13:15;13.90;99.90
61255;DHT22;47128;47.530;8.584;2023-05-07T00:15:40;14.00;99.90
61255;DHT22;47128;47.530;8.584;2023-05-07T00:18:06;14.00;99.90
61255;DHT22;47128;47.530;8.584;2023-05-07T00:20:33;14.10;99.90
61255;DHT22;47128;47.530;8.584;2023-05-07T00:22:59;14.10;99.90
61255;DHT22;47128;47.530;8.584;2023-05-07T00:25:25;14.00;99.90
61255;DHT22;47128;47.530;8.584;2023-05-07T00:27:50;14.00;99.90
61255;DHT22;47128;47.530;8.584;2023-05-07T00:30:16;14.10;99.90
61255;DHT22;47128;47.530;8.584;2023-05-07T00:32:42;14.00;99.90
61255;DHT22;47128;47.530;8.584;2023-05-07T00:35:07;14.00;99.90
61255;DHT22;47128;47.530;8.584;2023-05-07T00:37:33;14.00;99.90
61255;DHT22;47128;47.530;8.584;2023-05-07T00:39:59;13.90;99.90
61255;DHT22;47128;47.530;8.584;2023-05-07T00:42:25;13.90;99.90
61255;DHT22;47128;47.530;8.584;2023-05-07T00:44:51;13.90;99.90
61255;DHT22;47128;47.530;8.584;2023-05-07T00:47:17;13.90;99.90
61255;DHT22;47128;47.530;8.584;2023-05-07T00:49:43;13.90;99.90
61255;DHT22;47128;47.530;8.584;2023-05-07T00:52:10;13.80;99.90
61255;DHT22;47128;47.530;8.584;2023-05-07T00:54:36;13.90;99.90
61255;DHT22;47128;47.530;8.584;2023-05-07T00:57:02;14.00;99.90
61255;DHT22;47128;47.530;8.584;2023-05-07T00:59:30;14.00;99.90
61255;DHT22;47128;47.530;8.584;2023-05-07T01:01:57;13.90;99.90
61255;DHT22;47128;47.530;8.584;2023-05-07T01:04:23;13.80;99.90
61255;DHT22;47128;47.530;8.584;2023-05-07T01:06:49;13.70;99.90
61255;DHT22;47128;47.530;8.584;2023-05-07T01:09:15;13.70;99.90
61255;DHT22;47128;47.530;8.584;2023-05-07T01:11:41;13.70;99.90
61255;DHT22;47128;47.530;8.584;2023-05-07T01:14:08;13.80;99.90
61255;DHT22;47128;47.530;8.584;2023-05-07T01:16:34;13.80;99.90
61255;DHT22;47128;47.530;8.584;2023-05-07T01:19:00;13.80;99.90
61255;DHT22;47128;47.530;8.584;2023-05-07T01:23:52;13.70;99.90
61255;DHT22;47128;47.530;8.584;2023-05-07T01:26:17;13.60;99.90
61255;DHT22;47128;47.530;8.584;2023-05-07T01:28:45;13.60;99.90
61255;DHT22;47128;47.530;8.584;2023-05-07T01:33:37;13.50;99.90
61255;DHT22;47128;47.530;8.584;2023-05-07T01:36:03;13.40;99.90
61255;DHT22;47128;47.530;8.584;2023-05-07T01:38:31;13.40;99.90
61255;DHT22;47128;47.530;8.584;2023-05-07T01:40:57;13.50;99.90
61255;DHT22;47128;47.530;8.584;2023-05-07T01:43:23;13.60;99.90
61255;DHT22;47128;47.530;8.584;2023-05-07T01:45:49;13.50;99.90
61255;DHT22;47128;47.530;8.584;2023-05-07T01:48:15;13.40;99.90
61255;DHT22;47128;47.530;8.584;2023-05-07T01:50:41;13.40;99.90
61255;DHT22;47128;47.530;8.584;2023-05-07T01:53:07;13.30;99.90
61255;DHT22;47128;47.530;8.584;2023-05-07T01:55:32;13.40;99.90
61255;DHT22;47128;47.530;8.584;2023-05-07T01:57:58;13.30;99.90
61255;DHT22;47128;47.530;8.584;2023-05-07T02:00:23;13.30;99.90
61255;DHT22;47128;47.530;8.584;2023-05-07T02:02:49;13.20;99.90
61255;DHT22;47128;47.530;8.584;2023-05-07T02:05:15;13.20;99.90
61255;DHT22;47128;47.530;8.584;2023-05-07T02:07:40;13.20;99.90
61255;DHT22;47128;47.530;8.584;2023-05-07T02:10:06;13.30;99.90
61255;DHT22;47128;47.530;8.584;2023-05-07T02:12:32;13.30;99.90
61255;DHT22;47128;47.530;8.584;2023-05-07T02:14:57;13.30;99.90
61255;DHT22;47128;47.530;8.584;2023-05-07T02:17:23;13.30;99.90
61255;DHT22;47128;47.530;8.584;2023-05-07T02:19:48;13.20;99.90
61255;DHT22;47128;47.530;8.584;2023-05-07T02:22:14;13.10;99.90
61255;DHT22;47128;47.530;8.584;2023-05-07T02:24:40;13.00;99.90
61255;DHT22;47128;47.530;8.584;2023-05-07T02:27:06;13.00;99.90
61255;DHT22;47128;47.530;8.584;2023-05-07T02:29:32;13.00;99.90
61255;DHT22;47128;47.530;8.584;2023-05-07T02:31:57;13.10;99.90
61255;DHT22;47128;47.530;8.584;2023-05-07T02:34:23;13.10;99.90
61255;DHT22;47128;47.530;8.584;2023-05-07T02:36:49;13.10;99.90
61255;DHT22;47128;47.530;8.584;2023-05-07T02:39:14;13.10;99.90
61255;DHT22;47128;47.530;8.584;2023-05-07T02:41:40;13.10;99.90
61255;DHT22;47128;47.530;8.584;2023-05-07T02:44:06;13.00;99.90
61255;DHT22;47128;47.530;8.584;2023-05-07T02:46:31;13.00;99.90
61255;DHT22;47128;47.530;8.584;2023-05-07T02:48:58;12.90;99.90
61255;DHT22;47128;47.530;8.584;2023-05-07T02:51:23;12.80;99.90
61255;DHT22;47128;47.530;8.584;2023-05-07T02:53:49;12.70;99.90
61255;DHT22;47128;47.530;8.584;2023-05-07T02:56:15;12.70;99.90
61255;DHT22;47128;47.530;8.584;2023-05-07T02:58:40;12.60;99.90
61255;DHT22;47128;47.530;8.584;2023-05-07T03:01:09;12.70;99.90
61255;DHT22;47128;47.530;8.584;2023-05-07T03:03:35;12.70;99.90
61255;DHT22;47128;47.530;8.584;2023-05-07T03:06:00;12.80;99.90
61255;DHT22;47128;47.530;8.584;2023-05-07T03:08:26;12.80;99.90
61255;DHT22;47128;47.530;8.584;2023-05-07T03:10:52;12.60;99.90
61255;DHT22;47128;47.530;8.584;2023-05-07T03:13:18;12.60;99.90
61255;DHT22;47128;47.530;8.584;2023-05-07T03:15:44;12.50;99.90
61255;DHT22;47128;47.530;8.584;2023-05-07T03:18:09;12.40;99.90
61255;DHT22;47128;47.530;8.584;2023-05-07T03:20:35;12.40;99.90
61255;DHT22;47128;47.530;8.584;2023-05-07T03:23:01;12.40;99.90
61255;DHT22;47128;47.530;8.584;2023-05-07T03:25:27;12.40;99.90
61255;DHT22;47128;47.530;8.584;2023-05-07T03:27:53;12.40;99.90
61255;DHT22;47128;47.530;8.584;2023-05-07T03:30:18;12.40;99.90
61255;DHT22;47128;47.530;8.584;2023-05-07T03:32:44;12.40;99.90
61255;DHT22;47128;47.530;8.584;2023-05-07T03:35:09;12.40;99.90
61255;DHT22;47128;47.530;8.584;2023-05-07T03:37:35;12.30;99.90
61255;DHT22;47128;47.530;8.584;2023-05-07T03:40:00;12.30;99.90
61255;DHT22;47128;47.530;8.584;2023-05-07T03:42:26;12.30;99.90
61255;DHT22;47128;47.530;8.584;2023-05-07T03:44:52;12.30;99.90
61255;DHT22;47128;47.530;8.584;2023-05-07T03:47:17;12.20;99.90
61255;DHT22;47128;47.530;8.584;2023-05-07T03:49:43;12.30;99.90
61255;DHT22;47128;47.530;8.584;2023-05-07T03:52:10;12.20;99.90
61255;DHT22;47128;47.530;8.584;2023-05-07T03:54:36;12.10;99.90
61255;DHT22;47128;47.530;8.584;2023-05-07T03:57:01;12.10;99.90
61255;DHT22;47128;47.530;8.584;2023-05-07T03:59:27;12.00;99.90
61255;DHT22;47128;47.530;8.584;2023-05-07T04:01:53;12.00;99.90
61255;DHT22;47128;47.530;8.584;2023-05-07T04:04:19;12.00;99.90
61255;DHT22;47128;47.530;8.584;2023-05-07T04:06:45;12.10;99.90
61255;DHT22;47128;47.530;8.584;2023-05-07T04:09:10;12.10;99.90
61255;DHT22;47128;47.530;8.584;2023-05-07T04:11:36;12.10;99.90
61255;DHT22;47128;47.530;8.584;2023-05-07T04:14:01;12.10;99.90
61255;DHT22;47128;47.530;8.584;2023-05-07T04:16:27;12.10;99.90
61255;DHT22;47128;47.530;8.584;2023-05-07T04:18:53;12.10;99.90
61255;DHT22;47128;47.530;8.584;2023-05-07T04:21:20;12.00;99.90
61255;DHT22;47128;47.530;8.584;2023-05-07T04:23:49;11.90;99.90
61255;DHT22;47128;47.530;8.584;2023-05-07T04:26:15;12.00;99.90
61255;DHT22;47128;47.530;8.584;2023-05-07T04:28:41;12.00;99.90
61255;DHT22;47128;47.530;8.584;2023-05-07T04:31:07;12.10;99.90
61255;DHT22;47128;47.530;8.584;2023-05-07T04:33:33;12.10;99.90
61255;DHT22;47128;47.530;8.584;2023-05-07T04:36:02;12.10;99.90
61255;DHT22;47128;47.530;8.584;2023-05-07T04:38:31;12.10;99.90
61255;DHT22;47128;47.530;8.584;2023-05-07T04:40:58;12.10;99.90
61255;DHT22;47128;47.530;8.584;2023-05-07T04:43:27;12.20;99.90
61255;DHT22;47128;47.530;8.584;2023-05-07T04:45:53;12.30;99.90
61255;DHT22;47128;47.530;8.584;2023-05-07T04:48:19;12.40;99.90
61255;DHT22;47128;47.530;8.584;2023-05-07T04:50:49;12.40;99.90
61255;DHT22;47128;47.530;8.584;2023-05-07T04:53:14;12.50;99.90
61255;DHT22;47128;47.530;8.584;2023-05-07T04:55:40;12.40;99.90
61255;DHT22;47128;47.530;8.584;2023-05-07T04:58:05;12.50;99.90
61255;DHT22;47128;47.530;8.584;2023-05-07T05:00:31;12.50;99.90
61255;DHT22;47128;47.530;8.584;2023-05-07T05:02:57;12.60;99.90
61255;DHT22;47128;47.530;8.584;2023-05-07T05:05:22;12.70;99.90
61255;DHT22;47128;47.530;8.584;2023-05-07T05:07:48;12.90;99.90
61255;DHT22;47128;47.530;8.584;2023-05-07T05:10:13;13.00;99.90
61255;DHT22;47128;47.530;8.584;2023-05-07T05:12:39;13.10;99.90
61255;DHT22;47128;47.530;8.584;2023-05-07T05:15:05;13.30;99.90
61255;DHT22;47128;47.530;8.584;2023-05-07T05:17:30;13.30;99.90
61255;DHT22;47128;47.530;8.584;2023-05-07T05:19:56;13.30;99.90
61255;DHT22;47128;47.530;8.584;2023-05-07T05:22:21;13.30;99.90
61255;DHT22;47128;47.530;8.584;2023-05-07T05:24:47;13.40;99.90
61255;DHT22;47128;47.530;8.584;2023-05-07T05:27:12;13.60;99.90
61255;DHT22;47128;47.530;8.584;2023-05-07T05:29:38;14.00;99.90
61255;DHT22;47128;47.530;8.584;2023-05-07T05:32:04;14.20;99.90
61255;DHT22;47128;47.530;8.584;2023-05-07T05:34:29;14.30;99.90
61255;DHT22;47128;47.530;8.584;2023-05-07T05:36:55;14.40;99.90
61255;DHT22;47128;47.530;8.584;2023-05-07T05:39:21;14.30;99.90
61255;DHT22;47128;47.530;8.584;2023-05-07T05:41:48;14.30;99.90
61255;DHT22;47128;47.530;8.584;2023-05-07T05:44:14;14.30;99.90
61255;DHT22;47128;47.530;8.584;2023-05-07T05:46:40;14.20;99.90
61255;DHT22;47128;47.530;8.584;2023-05-07T05:49:05;14.20;99.90
61255;DHT22;47128;47.530;8.584;2023-05-07T05:51:31;14.00;99.90
61255;DHT22;47128;47.530;8.584;2023-05-07T05:53:57;14.00;99.90
61255;DHT22;47128;47.530;8.584;2023-05-07T05:56:22;14.00;99.90
61255;DHT22;47128;47.530;8.584;2023-05-07T05:58:48;14.00;99.90
61255;DHT22;47128;47.530;8.584;2023-05-07T06:01:13;14.30;99.90
61255;DHT22;47128;47.530;8.584;2023-05-07T06:03:39;14.50;99.90
61255;DHT22;47128;47.530;8.584;2023-05-07T06:06:04;14.60;99.90
61255;DHT22;47128;47.530;8.584;2023-05-07T06:08:30;14.80;99.90
61255;DHT22;47128;47.530;8.584;2023-05-07T06:10:56;15.00;99.90
61255;DHT22;47128;47.530;8.584;2023-05-07T06:13:22;15.30;99.90
61255;DHT22;47128;47.530;8.584;2023-05-07T06:15:49;15.60;99.90
61255;DHT22;47128;47.530;8.584;2023-05-07T06:20:40;16.20;99.90
61255;DHT22;47128;47.530;8.584;2023-05-07T06:23:06;16.30;99.90
61255;DHT22;47128;47.530;8.584;2023-05-07T06:25:31;16.40;99.90
61255;DHT22;47128;47.530;8.584;2023-05-07T06:27:57;16.40;99.90
61255;DHT22;47128;47.530;8.584;2023-05-07T06:30:23;16.60;99.90
61255;DHT22;47128;47.530;8.584;2023-05-07T06:32:48;16.60;99.90
61255;DHT22;47128;47.530;8.584;2023-05-07T06:35:14;16.60;99.90
61255;DHT22;47128;47.530;8.584;2023-05-07T06:37:41;16.50;99.90
61255;DHT22;47128;47.530;8.584;2023-05-07T06:40:08;16.40;99.90
61255;DHT22;47128;47.530;8.584;2023-05-07T06:42:33;16.20;99.90
61255;DHT22;47128;47.530;8.584;2023-05-07T06:44:59;16.00;99.90
61255;DHT22;47128;47.530;8.584;2023-05-07T06:47:24;15.90;99.90
61255;DHT22;47128;47.530;8.584;2023-05-07T06:49:50;15.90;99.90
61255;DHT22;47128;47.530;8.584;2023-05-07T06:52:16;16.00;99.90
61255;DHT22;47128;47.530;8.584;2023-05-07T06:54:42;16.20;99.90
61255;DHT22;47128;47.530;8.584;2023-05-07T06:57:08;16.30;99.90
61255;DHT22;47128;47.530;8.584;2023-05-07T06:59:33;16.50;99.90
61255;DHT22;47128;47.530;8.584;2023-05-07T07:01:59;16.60;99.90
61255;DHT22;47128;47.530;8.584;2023-05-07T07:04:24;17.10;99.90
61255;DHT22;47128;47.530;8.584;2023-05-07T07:06:51;17.40;99.90
61255;DHT22;47128;47.530;8.584;2023-05-07T07:09:17;17.90;99.90
61255;DHT22;47128;47.530;8.584;2023-05-07T07:11:42;18.50;98.90
61255;DHT22;47128;47.530;8.584;2023-05-07T07:14:08;18.90;97.80
61255;DHT22;47128;47.530;8.584;2023-05-07T07:16:33;19.30;97.10
61255;DHT22;47128;47.530;8.584;2023-05-07T07:18:59;19.80;99.50
61255;DHT22;47128;47.530;8.584;2023-05-07T07:21:25;20.10;96.60
61255;DHT22;47128;47.530;8.584;2023-05-07T07:23:51;21.20;93.90
61255;DHT22;47128;47.530;8.584;2023-05-07T07:26:17;21.30;93.90
61255;DHT22;47128;47.530;8.584;2023-05-07T07:28:43;21.40;93.50
61255;DHT22;47128;47.530;8.584;2023-05-07T07:31:09;21.40;93.40
61255;DHT22;47128;47.530;8.584;2023-05-07T07:33:34;21.20;93.50
61255;DHT22;47128;47.530;8.584;2023-05-07T07:36:00;21.00;93.80
61255;DHT22;47128;47.530;8.584;2023-05-07T07:38:26;20.60;94.20
61255;DHT22;47128;47.530;8.584;2023-05-07T07:40:51;20.60;94.10
61255;DHT22;47128;47.530;8.584;2023-05-07T07:43:17;20.80;94.30
61255;DHT22;47128;47.530;8.584;2023-05-07T07:45:42;20.90;94.20
61255;DHT22;47128;47.530;8.584;2023-05-07T07:48:09;20.80;93.90
61255;DHT22;47128;47.530;8.584;2023-05-07T07:50:34;20.50;94.30
61255;DHT22;47128;47.530;8.584;2023-05-07T07:53:00;20.40;94.40
61255;DHT22;47128;47.530;8.584;2023-05-07T07:55:25;20.70;94.30
61255;DHT22;47128;47.530;8.584;2023-05-07T07:57:52;20.60;94.20
61255;DHT22;47128;47.530;8.584;2023-05-07T08:00:18;21.00;94.00
61255;DHT22;47128;47.530;8.584;2023-05-07T08:02:43;21.20;93.80
61255;DHT22;47128;47.530;8.584;2023-05-07T08:05:09;21.40;93.60
61255;DHT22;47128;47.530;8.584;2023-05-07T08:07:34;20.90;93.50
61255;DHT22;47128;47.530;8.584;2023-05-07T08:10:00;20.90;93.90
61255;DHT22;47128;47.530;8.584;2023-05-07T08:12:26;21.10;93.60
61255;DHT22;47128;47.530;8.584;2023-05-07T08:14:51;21.00;93.50
61255;DHT22;47128;47.530;8.584;2023-05-07T08:17:17;21.20;93.60
61255;DHT22;47128;47.530;8.584;2023-05-07T08:19:43;21.00;93.50
61255;DHT22;47128;47.530;8.584;2023-05-07T08:22:09;20.80;93.70
61255;DHT22;47128;47.530;8.584;2023-05-07T08:24:36;20.90;93.50
61255;DHT22;47128;47.530;8.584;2023-05-07T08:27:02;21.00;93.80
61255;DHT22;47128;47.530;8.584;2023-05-07T08:29:28;21.20;93.50
61255;DHT22;47128;47.530;8.584;2023-05-07T08:31:54;21.50;93.30
61255;DHT22;47128;47.530;8.584;2023-05-07T08:34:21;21.70;93.10
61255;DHT22;47128;47.530;8.584;2023-05-07T08:36:47;21.50;92.80
61255;DHT22;47128;47.530;8.584;2023-05-07T08:39:14;21.40;92.20
61255;DHT22;47128;47.530;8.584;2023-05-07T08:41:40;21.30;92.60
61255;DHT22;47128;47.530;8.584;2023-05-07T08:44:06;21.40;92.60
61255;DHT22;47128;47.530;8.584;2023-05-07T08:46:31;21.50;92.50
61255;DHT22;47128;47.530;8.584;2023-05-07T08:48:57;21.60;92.60
61255;DHT22;47128;47.530;8.584;2023-05-07T08:51:23;21.60;92.60
61255;DHT22;47128;47.530;8.584;2023-05-07T08:53:49;21.90;92.50
61255;DHT22;47128;47.530;8.584;2023-05-07T08:56:15;21.90;92.10
61255;DHT22;47128;47.530;8.584;2023-05-07T08:58:44;22.20;92.20
61255;DHT22;47128;47.530;8.584;2023-05-07T09:01:11;22.20;91.80
61255;DHT22;47128;47.530;8.584;2023-05-07T09:03:38;22.30;91.50
61255;DHT22;47128;47.530;8.584;2023-05-07T09:06:04;22.50;91.50
61255;DHT22;47128;47.530;8.584;2023-05-07T09:08:32;22.50;91.30
61255;DHT22;47128;47.530;8.584;2023-05-07T09:10:57;22.50;91.30
61255;DHT22;47128;47.530;8.584;2023-05-07T09:13:23;22.60;91.40
61255;DHT22;47128;47.530;8.584;2023-05-07T09:15:48;22.40;91.50
61255;DHT22;47128;47.530;8.584;2023-05-07T09:18:15;22.40;91.40
61255;DHT22;47128;47.530;8.584;2023-05-07T09:20:41;22.50;91.30
61255;DHT22;47128;47.530;8.584;2023-05-07T09:23:06;22.60;91.20
61255;DHT22;47128;47.530;8.584;2023-05-07T09:25:33;22.40;91.20
61255;DHT22;47128;47.530;8.584;2023-05-07T09:28:00;22.40;91.30
61255;DHT22;47128;47.530;8.584;2023-05-07T09:30:30;22.40;91.50
61255;DHT22;47128;47.530;8.584;2023-05-07T09:32:57;22.30;91.50
61255;DHT22;47128;47.530;8.584;2023-05-07T09:35:24;22.30;91.30
61255;DHT22;47128;47.530;8.584;2023-05-07T09:37:53;22.30;91.50
61255;DHT22;47128;47.530;8.584;2023-05-07T09:42:47;22.40;91.40
61255;DHT22;47128;47.530;8.584;2023-05-07T09:45:13;22.50;91.50
61255;DHT22;47128;47.530;8.584;2023-05-07T09:47:39;22.60;91.20
61255;DHT22;47128;47.530;8.584;2023-05-07T09:50:07;22.50;91.00
61255;DHT22;47128;47.530;8.584;2023-05-07T09:52:34;22.70;91.30
61255;DHT22;47128;47.530;8.584;2023-05-07T09:55:00;23.10;90.60
61255;DHT22;47128;47.530;8.584;2023-05-07T09:57:27;23.30;90.40
61255;DHT22;47128;47.530;8.584;2023-05-07T09:59:54;23.40;90.60
61255;DHT22;47128;47.530;8.584;2023-05-07T10:02:21;23.30;90.10
61255;DHT22;47128;47.530;8.584;2023-05-07T10:04:49;23.50;90.30
61255;DHT22;47128;47.530;8.584;2023-05-07T10:07:16;23.40;90.50
61255;DHT22;47128;47.530;8.584;2023-05-07T10:09:42;23.50;90.30
61255;DHT22;47128;47.530;8.584;2023-05-07T10:12:09;23.50;90.10
61255;DHT22;47128;47.530;8.584;2023-05-07T10:14:35;23.20;90.30
61255;DHT22;47128;47.530;8.584;2023-05-07T10:17:02;23.00;90.00
61255;DHT22;47128;47.530;8.584;2023-05-07T10:19:27;22.80;90.30
61255;DHT22;47128;47.530;8.584;2023-05-07T10:21:55;22.90;90.70
61255;DHT22;47128;47.530;8.584;2023-05-07T10:24:25;23.20;90.50
61255;DHT22;47128;47.530;8.584;2023-05-07T10:26:52;23.50;90.30
61255;DHT22;47128;47.530;8.584;2023-05-07T10:31:59;23.80;90.00
61255;DHT22;47128;47.530;8.584;2023-05-07T10:34:36;23.90;89.20
61255;DHT22;47128;47.530;8.584;2023-05-07T10:37:03;24.20;89.30
61255;DHT22;47128;47.530;8.584;2023-05-07T10:39:29;24.50;88.70
61255;DHT22;47128;47.530;8.584;2023-05-07T10:41:55;24.60;88.70
61255;DHT22;47128;47.530;8.584;2023-05-07T10:44:27;24.50;88.30
61255;DHT22;47128;47.530;8.584;2023-05-07T10:47:04;24.20;88.70
61255;DHT22;47128;47.530;8.584;2023-05-07T10:49:30;23.80;89.10
61255;DHT22;47128;47.530;8.584;2023-05-07T10:52:11;23.60;89.80
61255;DHT22;47128;47.530;8.584;2023-05-07T10:54:36;23.50;89.90
61255;DHT22;47128;47.530;8.584;2023-05-07T10:59:48;22.80;90.50
61255;DHT22;47128;47.530;8.584;2023-05-07T11:02:14;22.70;90.50
61255;DHT22;47128;47.530;8.584;2023-05-07T11:04:40;22.70;90.90
61255;DHT22;47128;47.530;8.584;2023-05-07T11:09:54;22.60;91.20
61255;DHT22;47128;47.530;8.584;2023-05-07T11:15:08;23.00;90.50
61255;DHT22;47128;47.530;8.584;2023-05-07T11:17:35;23.00;90.50
61255;DHT22;47128;47.530;8.584;2023-05-07T11:20:16;22.90;90.30
61255;DHT22;47128;47.530;8.584;2023-05-07T11:22:42;22.60;90.70
61255;DHT22;47128;47.530;8.584;2023-05-07T11:25:08;22.40;91.30
61255;DHT22;47128;47.530;8.584;2023-05-07T11:27:34;22.40;91.10
61255;DHT22;47128;47.530;8.584;2023-05-07T11:29:59;22.30;91.20
61255;DHT22;47128;47.530;8.584;2023-05-07T11:32:26;22.30;91.40
61255;DHT22;47128;47.530;8.584;2023-05-07T11:34:56;22.30;91.40
61255;DHT22;47128;47.530;8.584;2023-05-07T11:37:22;22.10;91.40
61255;DHT22;47128;47.530;8.584;2023-05-07T11:39:48;22.40;91.60
61255;DHT22;47128;47.530;8.584;2023-05-07T11:44:52;22.80;91.10
61255;DHT22;47128;47.530;8.584;2023-05-07T11:47:17;23.20;90.90
61255;DHT22;47128;47.530;8.584;2023-05-07T11:49:43;23.00;90.30
61255;DHT22;47128;47.530;8.584;2023-05-07T11:52:09;22.90;90.90
61255;DHT22;47128;47.530;8.584;2023-05-07T11:54:35;23.20;91.10
61255;DHT22;47128;47.530;8.584;2023-05-07T11:57:02;23.10;90.00
61255;DHT22;47128;47.530;8.584;2023-05-07T11:59:27;23.20;90.30
61255;DHT22;47128;47.530;8.584;2023-05-07T12:04:56;23.60;89.20
61255;DHT22;47128;47.530;8.584;2023-05-07T12:07:23;23.70;89.60
61255;DHT22;47128;47.530;8.584;2023-05-07T12:09:49;23.90;89.70
61255;DHT22;47128;47.530;8.584;2023-05-07T12:12:15;23.90;89.30
61255;DHT22;47128;47.530;8.584;2023-05-07T12:14:43;23.90;89.40
61255;DHT22;47128;47.530;8.584;2023-05-07T12:17:10;24.00;88.20
61255;DHT22;47128;47.530;8.584;2023-05-07T12:19:36;24.00;87.40
61255;DHT22;47128;47.530;8.584;2023-05-07T12:22:04;23.80;87.50
61255;DHT22;47128;47.530;8.584;2023-05-07T12:24:47;23.60;88.20
61255;DHT22;47128;47.530;8.584;2023-05-07T12:27:14;23.70;88.20
61255;DHT22;47128;47.530;8.584;2023-05-07T12:29:40;24.10;87.90
61255;DHT22;47128;47.530;8.584;2023-05-07T12:32:12;24.30;86.80
61255;DHT22;47128;47.530;8.584;2023-05-07T12:34:39;24.40;87.10
61255;DHT22;47128;47.530;8.584;2023-05-07T12:37:04;24.50;86.60
61255;DHT22;47128;47.530;8.584;2023-05-07T12:39:30;24.60;86.20
61255;DHT22;47128;47.530;8.584;2023-05-07T12:41:56;24.70;85.80
61255;DHT22;47128;47.530;8.584;2023-05-07T12:44:25;24.60;86.00
61255;DHT22;47128;47.530;8.584;2023-05-07T12:46:51;24.70;86.60
61255;DHT22;47128;47.530;8.584;2023-05-07T12:49:18;24.70;85.30
61255;DHT22;47128;47.530;8.584;2023-05-07T12:51:44;24.60;86.10
61255;DHT22;47128;47.530;8.584;2023-05-07T12:54:12;24.60;86.90
61255;DHT22;47128;47.530;8.584;2023-05-07T12:56:37;24.40;87.40
61255;DHT22;47128;47.530;8.584;2023-05-07T12:59:03;24.20;88.30
61255;DHT22;47128;47.530;8.584;2023-05-07T13:01:30;23.80;88.20
61255;DHT22;47128;47.530;8.584;2023-05-07T13:04:02;23.90;89.00
61255;DHT22;47128;47.530;8.584;2023-05-07T13:06:29;23.90;90.00
61255;DHT22;47128;47.530;8.584;2023-05-07T13:08:55;23.90;90.40
61255;DHT22;47128;47.530;8.584;2023-05-07T13:11:21;24.10;90.90
61255;DHT22;47128;47.530;8.584;2023-05-07T13:13:46;24.20;90.70
61255;DHT22;47128;47.530;8.584;2023-05-07T13:16:12;24.10;90.30
61255;DHT22;47128;47.530;8.584;2023-05-07T13:18:38;24.10;90.20
61255;DHT22;47128;47.530;8.584;2023-05-07T13:21:04;23.90;90.10
61255;DHT22;47128;47.530;8.584;2023-05-07T13:23:29;23.80;90.30
61255;DHT22;47128;47.530;8.584;2023-05-07T13:25:55;23.80;90.20
61255;DHT22;47128;47.530;8.584;2023-05-07T13:28:21;23.70;89.80
61255;DHT22;47128;47.530;8.584;2023-05-07T13:30:48;23.80;90.00
61255;DHT22;47128;47.530;8.584;2023-05-07T13:33:13;23.90;89.50
61255;DHT22;47128;47.530;8.584;2023-05-07T13:35:39;24.10;88.80
61255;DHT22;47128;47.530;8.584;2023-05-07T13:38:05;24.20;89.50
61255;DHT22;47128;47.530;8.584;2023-05-07T13:40:30;24.30;89.50
61255;DHT22;47128;47.530;8.584;2023-05-07T13:42:57;24.20;90.20
61255;DHT22;47128;47.530;8.584;2023-05-07T13:48:16;23.90;90.00
61255;DHT22;47128;47.530;8.584;2023-05-07T13:53:44;23.70;90.50
61255;DHT22;47128;47.530;8.584;2023-05-07T13:56:10;23.70;90.80
61255;DHT22;47128;47.530;8.584;2023-05-07T13:58:36;23.60;91.00
61255;DHT22;47128;47.530;8.584;2023-05-07T14:01:01;23.70;90.90
61255;DHT22;47128;47.530;8.584;2023-05-07T14:03:27;23.80;91.20
61255;DHT22;47128;47.530;8.584;2023-05-07T14:05:52;23.90;90.30
61255;DHT22;47128;47.530;8.584;2023-05-07T14:08:18;23.70;90.50
61255;DHT22;47128;47.530;8.584;2023-05-07T14:10:45;23.10;90.60
61255;DHT22;47128;47.530;8.584;2023-05-07T14:13:11;23.10;90.30
61255;DHT22;47128;47.530;8.584;2023-05-07T14:15:37;23.30;90.00
61255;DHT22;47128;47.530;8.584;2023-05-07T14:18:02;23.40;89.30
61255;DHT22;47128;47.530;8.584;2023-05-07T14:20:28;23.50;89.80
61255;DHT22;47128;47.530;8.584;2023-05-07T14:22:55;23.60;89.00
61255;DHT22;47128;47.530;8.584;2023-05-07T14:25:21;23.60;90.20
61255;DHT22;47128;47.530;8.584;2023-05-07T14:27:51;23.60;90.10
61255;DHT22;47128;47.530;8.584;2023-05-07T14:30:16;23.60;90.30
61255;DHT22;47128;47.530;8.584;2023-05-07T14:32:42;23.30;90.60
61255;DHT22;47128;47.530;8.584;2023-05-07T14:35:08;22.90;91.30
61255;DHT22;47128;47.530;8.584;2023-05-07T14:37:34;22.50;92.00
61255;DHT22;47128;47.530;8.584;2023-05-07T14:39:59;22.30;92.40
61255;DHT22;47128;47.530;8.584;2023-05-07T14:42:25;22.10;91.20
61255;DHT22;47128;47.530;8.584;2023-05-07T14:44:51;21.70;90.30
61255;DHT22;47128;47.530;8.584;2023-05-07T14:50:21;21.20;90.30
61255;DHT22;47128;47.530;8.584;2023-05-07T14:52:46;22.00;98.70
61255;DHT22;47128;47.530;8.584;2023-05-07T14:55:12;21.50;92.90
61255;DHT22;47128;47.530;8.584;2023-05-07T14:57:38;21.40;93.10
61255;DHT22;47128;47.530;8.584;2023-05-07T15:00:04;21.30;93.70
61255;DHT22;47128;47.530;8.584;2023-05-07T15:02:30;21.00;91.10
61255;DHT22;47128;47.530;8.584;2023-05-07T15:04:55;20.90;93.40
61255;DHT22;47128;47.530;8.584;2023-05-07T15:07:21;20.90;95.40
61255;DHT22;47128;47.530;8.584;2023-05-07T15:09:47;20.90;93.40
61255;DHT22;47128;47.530;8.584;2023-05-07T15:12:12;21.00;93.20
61255;DHT22;47128;47.530;8.584;2023-05-07T15:14:38;21.00;92.50
61255;DHT22;47128;47.530;8.584;2023-05-07T15:17:04;21.00;92.60
61255;DHT22;47128;47.530;8.584;2023-05-07T15:19:30;21.10;92.70
61255;DHT22;47128;47.530;8.584;2023-05-07T15:21:59;21.10;92.90
61255;DHT22;47128;47.530;8.584;2023-05-07T15:24:28;20.80;93.20
61255;DHT22;47128;47.530;8.584;2023-05-07T15:26:53;20.70;93.30
61255;DHT22;47128;47.530;8.584;2023-05-07T15:29:19;20.70;93.50
61255;DHT22;47128;47.530;8.584;2023-05-07T15:31:45;20.60;93.80
61255;DHT22;47128;47.530;8.584;2023-05-07T15:34:11;20.60;94.10
61255;DHT22;47128;47.530;8.584;2023-05-07T15:36:37;20.40;93.80
61255;DHT22;47128;47.530;8.584;2023-05-07T15:39:02;20.30;94.00
61255;DHT22;47128;47.530;8.584;2023-05-07T15:41:29;20.20;94.10
61255;DHT22;47128;47.530;8.584;2023-05-07T15:43:55;20.20;95.60
61255;DHT22;47128;47.530;8.584;2023-05-07T15:48:48;20.40;99.90
61255;DHT22;47128;47.530;8.584;2023-05-07T15:51:15;20.40;95.90
61255;DHT22;47128;47.530;8.584;2023-05-07T15:53:40;20.40;95.80
61255;DHT22;47128;47.530;8.584;2023-05-07T15:56:06;20.50;96.40
61255;DHT22;47128;47.530;8.584;2023-05-07T15:58:32;20.40;96.60
61255;DHT22;47128;47.530;8.584;2023-05-07T16:00:58;20.30;97.80